Latest Weather Observations for Bellingen RF70 (RFS)
Issued at 5:52 am EST Wednesday 2 September 2026 (issued every 10 minutes, with the page automatically refreshed every 10 minutes)
| Station Details | ID: 560079 | Name: BELLINGEN (RFS) | Lat: -30.44 | Lon: 152.89 | Height: 8.0 m |
Portable automatic weather stations (PAWS) are operated by other organisations, such as Fire and Emergency Services, and are included here by agreement. Portable stations may be deployed to a location for a short period and their location may be subject to change without notice. Wind observations from these stations are provided from heights of either three (3) or ten (10) metres above ground level (AGL).
Data from the previous 72 hours. | See also: Recent months for locations in New South Wales| Date/Time EST |
Temp °C |
App Temp °C |
Dew Point °C |
Rel Hum % |
Delta-T °C |
Wind | Press QNH hPa |
Press MSL hPa |
Rain since 9am mm |
|||||
|---|---|---|---|---|---|---|---|---|---|---|---|---|---|---|
| Dir | Spd km/h |
Gust km/h |
Spd kts |
Gust kts |
||||||||||
| 02/05:40am | 8.8 | 7.7 | 8.5 | 98 | 0.1 | S | 4 | 4 | 2 | 2 | 1020.5 | 1019.5 | 0.2 | |
| 02/05:30am | 8.6 | 7.8 | 8.2 | 97 | 0.2 | SSE | 2 | 6 | 1 | 3 | 1020.4 | 1019.4 | 0.2 | |
| 02/05:20am | 8.5 | 7.7 | 8.1 | 97 | 0.2 | ESE | 2 | 4 | 1 | 2 | 1020.4 | 1019.4 | 0.2 | |
| 02/05:10am | 8.6 | 7.5 | 8.3 | 98 | 0.1 | NNE | 4 | 6 | 2 | 3 | 1020.2 | 1019.2 | 0.2 | |
| 02/05:00am | 8.7 | 8.0 | 8.4 | 98 | 0.1 | NW | 2 | 4 | 1 | 2 | 1020.2 | 1019.2 | 0.2 | |
| 02/04:50am | 8.5 | 6.9 | 8.2 | 98 | 0.1 | N | 6 | 7 | 3 | 4 | 1020.2 | 1019.2 | 0.2 | |
| 02/04:40am | 9.0 | 8.0 | 8.7 | 98 | 0.1 | SE | 4 | 6 | 2 | 3 | 1020.2 | 1019.2 | 0.2 | |
| 02/04:30am | 8.7 | 7.6 | 8.3 | 97 | 0.2 | NNE | 4 | 6 | 2 | 3 | 1020.1 | 1019.1 | 0.2 | |
| 02/04:20am | 9.0 | 8.3 | 8.5 | 97 | 0.2 | NNE | 2 | 6 | 1 | 3 | 1020.2 | 1019.2 | 0.2 | |
| 02/04:10am | 9.3 | 8.7 | 9.0 | 98 | 0.1 | NNW | 2 | 6 | 1 | 3 | 1020.3 | 1019.3 | 0.2 | |
| 02/04:00am | 9.2 | 8.2 | 8.8 | 97 | 0.2 | N | 4 | 4 | 2 | 2 | 1020.2 | 1019.2 | 0.2 | |
| 02/03:50am | 9.2 | 8.6 | 8.8 | 97 | 0.2 | E | 2 | 4 | 1 | 2 | 1020.2 | 1019.2 | 0.2 | |
| 02/03:40am | 9.4 | 8.8 | 9.0 | 97 | 0.2 | S | 2 | 2 | 1 | 1 | 1020.2 | 1019.2 | 0.2 | |
| 02/03:30am | 9.4 | 8.8 | 9.0 | 97 | 0.2 | N | 2 | 4 | 1 | 2 | 1020.2 | 1019.2 | 0.2 | |
| 02/03:20am | 9.5 | 8.9 | 9.1 | 97 | 0.2 | NW | 2 | 2 | 1 | 1 | 1020.3 | 1019.3 | 0.2 | |
| 02/03:10am | 9.5 | 8.9 | 9.1 | 97 | 0.2 | NE | 2 | 6 | 1 | 3 | 1020.4 | 1019.4 | 0.2 | |
| 02/03:00am | 9.7 | 9.2 | 9.3 | 97 | 0.2 | N | 2 | 6 | 1 | 3 | 1020.5 | 1019.5 | 0.2 | |
| 02/02:50am | 10.1 | 8.7 | 9.7 | 97 | 0.2 | W | 7 | 7 | 4 | 4 | 1020.6 | 1019.6 | 0.2 | |
| 02/02:40am | 9.7 | 8.8 | 9.2 | 97 | 0.2 | WNW | 4 | 7 | 2 | 4 | 1020.7 | 1019.7 | 0.2 | |
| 02/02:30am | 9.9 | 8.7 | 9.5 | 97 | 0.2 | N | 6 | 6 | 3 | 3 | 1020.7 | 1019.7 | 0.2 | |
| 02/02:20am | 9.8 | 8.5 | 9.3 | 97 | 0.2 | N | 6 | 7 | 3 | 4 | 1020.9 | 1019.9 | 0.2 | |
| 02/02:10am | 10.5 | 10.2 | 10.0 | 97 | 0.3 | S | 2 | 4 | 1 | 2 | 1021.0 | 1020.0 | 0.2 | |
| 02/02:00am | 10.3 | 9.9 | 9.8 | 97 | 0.3 | SE | 2 | 4 | 1 | 2 | 1020.9 | 1019.9 | 0.2 | |
| 02/01:50am | 10.3 | 9.9 | 9.8 | 97 | 0.3 | E | 2 | 4 | 1 | 2 | 1021.1 | 1020.1 | 0.2 | |
| 02/01:40am | 10.5 | 10.2 | 10.0 | 97 | 0.3 | ENE | 2 | 4 | 1 | 2 | 1021.4 | 1020.4 | 0.2 | |
| 02/01:30am | 10.6 | 10.3 | 10.1 | 97 | 0.3 | SE | 2 | 4 | 1 | 2 | 1021.6 | 1020.6 | 0.2 | |
| 02/01:20am | 10.5 | 10.2 | 10.0 | 97 | 0.3 | ESE | 2 | 2 | 1 | 1 | 1021.6 | 1020.6 | 0.2 | |
| 02/01:10am | 10.8 | 10.2 | 10.3 | 97 | 0.3 | N | 4 | 4 | 2 | 2 | 1021.9 | 1020.9 | 0.2 | |
| 02/01:00am | 10.8 | 10.2 | 10.3 | 97 | 0.3 | N | 4 | 4 | 2 | 2 | 1022.0 | 1021.0 | 0.2 | |
| 02/12:50am | 10.7 | 10.0 | 10.2 | 97 | 0.3 | N | 4 | 6 | 2 | 3 | 1021.9 | 1020.9 | 0.2 | |
| 02/12:40am | 11.1 | 10.9 | 10.6 | 97 | 0.3 | N | 2 | 2 | 1 | 1 | 1021.8 | 1020.8 | 0.2 | |
| 02/12:30am | 10.9 | 10.7 | 10.3 | 96 | 0.3 | NW | 2 | 2 | 1 | 1 | 1021.9 | 1020.9 | 0.2 | |
| 02/12:20am | 11.1 | 10.9 | 10.6 | 97 | 0.3 | NNW | 2 | 4 | 1 | 2 | 1021.9 | 1020.9 | 0.2 | |
| 02/12:10am | 11.3 | 11.2 | 10.7 | 96 | 0.3 | NNE | 2 | 4 | 1 | 2 | 1022.0 | 1021.0 | 0.2 | |
| 02/12:00am | 11.6 | 11.6 | 11.0 | 96 | 0.3 | SE | 2 | 2 | 1 | 1 | 1022.0 | 1021.0 | 0.2 | |
| Date/Time EST |
Temp °C |
App Temp °C |
Dew Point °C |
Rel Hum % |
Delta-T °C |
Wind | Press QNH hPa |
Press MSL hPa |
Rain since 9am mm |
|||||
|---|---|---|---|---|---|---|---|---|---|---|---|---|---|---|
| Dir | Spd km/h |
Gust km/h |
Spd kts |
Gust kts |
||||||||||
| 01/11:50pm | 11.7 | 11.7 | 11.2 | 97 | 0.3 | SE | 2 | 2 | 1 | 1 | 1022.0 | 1021.0 | 0.2 | |
| 01/11:40pm | 11.7 | 11.7 | 11.1 | 96 | 0.3 | ESE | 2 | 2 | 1 | 1 | 1022.1 | 1021.1 | 0.2 | |
| 01/11:30pm | 11.8 | 12.2 | 11.1 | 95 | 0.4 | CALM | 0 | 2 | 0 | 1 | 1022.2 | 1021.2 | 0.2 | |
| 01/11:20pm | 11.9 | 12.3 | 11.2 | 95 | 0.4 | CALM | 0 | 2 | 0 | 1 | 1022.3 | 1021.3 | 0.2 | |
| 01/11:10pm | 12.0 | 12.1 | 11.4 | 96 | 0.3 | N | 2 | 2 | 1 | 1 | 1022.5 | 1021.5 | 0.2 | |
| 01/11:00pm | 12.1 | 12.2 | 11.5 | 96 | 0.3 | NE | 2 | 4 | 1 | 2 | 1022.6 | 1021.6 | 0.2 | |
| 01/10:50pm | 12.2 | 12.3 | 11.5 | 95 | 0.4 | N | 2 | 4 | 1 | 2 | 1022.7 | 1021.7 | 0.2 | |
| 01/10:40pm | 12.4 | 12.6 | 11.7 | 95 | 0.4 | SSW | 2 | 2 | 1 | 1 | 1022.8 | 1021.8 | 0.2 | |
| 01/10:30pm | 12.3 | 12.4 | 11.6 | 95 | 0.4 | NNE | 2 | 4 | 1 | 2 | 1022.8 | 1021.8 | 0.2 | |
| 01/10:20pm | 12.4 | 12.9 | 11.7 | 95 | 0.4 | CALM | 0 | 2 | 0 | 1 | 1022.9 | 1021.9 | 0.2 | |
| 01/10:10pm | 12.6 | 12.8 | 11.9 | 95 | 0.4 | E | 2 | 2 | 1 | 1 | 1023.0 | 1022.0 | 0.2 | |
| 01/10:00pm | 12.8 | 13.0 | 12.0 | 95 | 0.4 | S | 2 | 2 | 1 | 1 | 1023.0 | 1022.0 | 0.2 | |
| 01/09:50pm | 12.8 | 13.1 | 12.1 | 95 | 0.4 | ESE | 2 | 2 | 1 | 1 | 1023.0 | 1022.0 | 0.2 | |
| 01/09:40pm | 13.0 | 13.3 | 12.2 | 95 | 0.4 | N | 2 | 2 | 1 | 1 | 1023.0 | 1022.0 | 0.2 | |
| 01/09:30pm | 13.0 | 13.3 | 12.2 | 95 | 0.4 | SSW | 2 | 4 | 1 | 2 | 1023.0 | 1022.0 | 0.2 | |
| 01/09:20pm | 13.2 | 13.5 | 12.3 | 94 | 0.5 | ENE | 2 | 4 | 1 | 2 | 1023.0 | 1022.0 | 0.2 | |
| 01/09:10pm | 13.2 | 13.5 | 12.2 | 94 | 0.5 | NNE | 2 | 4 | 1 | 2 | 1023.0 | 1022.0 | 0.2 | |
| 01/09:00pm | 13.3 | 13.7 | 12.4 | 94 | 0.5 | N | 2 | 4 | 1 | 2 | 1022.9 | 1021.9 | 0.2 | |
| 01/08:50pm | 13.6 | 14.0 | 12.5 | 93 | 0.6 | E | 2 | 4 | 1 | 2 | 1022.9 | 1021.9 | 0.2 | |
| 01/08:40pm | 13.7 | 14.2 | 12.7 | 94 | 0.5 | NW | 2 | 6 | 1 | 3 | 1022.9 | 1021.9 | 0.2 | |
| 01/08:30pm | 13.8 | 14.3 | 12.7 | 93 | 0.6 | N | 2 | 6 | 1 | 3 | 1022.9 | 1021.9 | 0.2 | |
| 01/08:20pm | 13.9 | 14.4 | 12.7 | 92 | 0.7 | N | 2 | 6 | 1 | 3 | 1022.9 | 1021.9 | 0.2 | |
| 01/08:10pm | 14.3 | 14.8 | 12.9 | 91 | 0.8 | NW | 2 | 4 | 1 | 2 | 1022.9 | 1021.9 | 0.2 | |
| 01/08:00pm | 14.5 | 15.1 | 13.1 | 91 | 0.8 | NNE | 2 | 4 | 1 | 2 | 1022.9 | 1021.9 | 0.2 | |
| 01/07:50pm | 14.6 | 15.2 | 13.0 | 90 | 0.9 | NNE | 2 | 4 | 1 | 2 | 1022.8 | 1021.8 | 0.2 | |
| 01/07:40pm | 14.9 | 15.6 | 13.3 | 90 | 0.9 | NW | 2 | 4 | 1 | 2 | 1022.7 | 1021.7 | 0.2 | |
| 01/07:30pm | 15.0 | 15.2 | 13.2 | 89 | 1.0 | N | 4 | 6 | 2 | 3 | 1022.7 | 1021.7 | 0.2 | |
| 01/07:20pm | 15.5 | 16.6 | 13.5 | 88 | 1.1 | CALM | 0 | 2 | 0 | 1 | 1022.6 | 1021.6 | 0.2 | |
| 01/07:10pm | 15.8 | 16.6 | 13.6 | 87 | 1.2 | NNE | 2 | 2 | 1 | 1 | 1022.5 | 1021.5 | 0.2 | |
| 01/07:00pm | 16.3 | 17.1 | 13.8 | 85 | 1.4 | E | 2 | 2 | 1 | 1 | 1022.3 | 1021.3 | 0.2 | |
| 01/06:50pm | 16.8 | 17.7 | 13.9 | 83 | 1.6 | SE | 2 | 4 | 1 | 2 | 1022.2 | 1021.2 | 0.2 | |
| 01/06:40pm | 17.0 | 17.9 | 14.1 | 83 | 1.7 | SSE | 2 | 4 | 1 | 2 | 1022.1 | 1021.1 | 0.2 | |
| 01/06:30pm | 17.4 | 18.0 | 14.2 | 81 | 1.8 | SE | 4 | 6 | 2 | 3 | 1022.0 | 1021.0 | 0.2 | |
| 01/06:20pm | 17.6 | 18.6 | 14.3 | 81 | 1.9 | SSE | 2 | 6 | 1 | 3 | 1021.9 | 1020.9 | 0.2 | |
| 01/06:10pm | 18.0 | 19.0 | 14.3 | 79 | 2.1 | SE | 2 | 4 | 1 | 2 | 1021.8 | 1020.8 | 0.2 | |
| 01/06:00pm | 18.4 | 19.4 | 14.4 | 77 | 2.3 | S | 2 | 4 | 1 | 2 | 1021.6 | 1020.6 | 0.2 | |
| 01/05:50pm | 19.0 | 20.1 | 14.6 | 75 | 2.6 | SE | 2 | 4 | 1 | 2 | 1021.6 | 1020.6 | 0.2 | |
| 01/05:40pm | 19.4 | 20.5 | 14.6 | 74 | 2.8 | ENE | 2 | 4 | 1 | 2 | 1021.5 | 1020.5 | 0.2 | |
| 01/05:30pm | 20.0 | 21.1 | 14.6 | 71 | 3.1 | ESE | 2 | 6 | 1 | 3 | 1021.5 | 1020.5 | 0.2 | |
| 01/05:20pm | 20.6 | 21.4 | 14.7 | 69 | 3.5 | SE | 4 | 6 | 2 | 3 | 1021.4 | 1020.4 | 0.2 | |
| 01/05:10pm | 21.1 | 22.3 | 14.8 | 67 | 3.7 | ESE | 2 | 4 | 1 | 2 | 1021.4 | 1020.4 | 0.2 | |
| 01/05:00pm | 21.5 | 22.7 | 14.8 | 65 | 3.9 | E | 2 | 6 | 1 | 3 | 1021.3 | 1020.3 | 0.2 | |
| 01/04:50pm | 22.0 | 22.9 | 15.1 | 65 | 4.1 | E | 4 | 7 | 2 | 4 | 1021.2 | 1020.2 | 0.2 | |
| 01/04:40pm | 22.2 | 22.7 | 14.9 | 63 | 4.3 | ESE | 6 | 11 | 3 | 6 | 1021.2 | 1020.2 | 0.2 | |
| 01/04:30pm | 22.5 | 23.4 | 15.1 | 63 | 4.4 | E | 4 | 7 | 2 | 4 | 1021.2 | 1020.2 | 0.2 | |
| 01/04:20pm | 22.9 | 23.8 | 15.1 | 61 | 4.6 | ESE | 4 | 6 | 2 | 3 | 1021.2 | 1020.2 | 0.2 | |
| 01/04:10pm | 23.3 | 24.2 | 15.1 | 60 | 4.9 | NE | 4 | 6 | 2 | 3 | 1021.1 | 1020.1 | 0.2 | |
| 01/04:00pm | 24.0 | 24.3 | 13.4 | 51 | 6.2 | E | 4 | 11 | 2 | 6 | 1021.1 | 1020.1 | 0.2 | |
| 01/03:50pm | 24.0 | 23.5 | 12.0 | 47 | 6.8 | NNE | 6 | 11 | 3 | 6 | 1021.0 | 1020.0 | 0.2 | |
| 01/03:40pm | 24.1 | 23.8 | 12.8 | 49 | 6.5 | NE | 6 | 9 | 3 | 5 | 1021.1 | 1020.1 | 0.2 | |
| 01/03:30pm | 24.3 | 23.9 | 12.9 | 49 | 6.6 | NNE | 7 | 13 | 4 | 7 | 1021.0 | 1020.0 | 0.2 | |
| 01/03:20pm | 24.6 | 24.1 | 12.5 | 46 | 6.9 | NNE | 7 | 13 | 4 | 7 | 1021.1 | 1020.1 | 0.2 | |
| 01/03:10pm | 24.7 | 23.9 | 11.8 | 44 | 7.3 | NNE | 7 | 15 | 4 | 8 | 1021.1 | 1020.1 | 0.2 | |
| 01/03:00pm | 24.8 | 24.2 | 12.2 | 45 | 7.2 | N | 7 | 15 | 4 | 8 | 1021.2 | 1020.2 | 0.2 | |
| 01/02:50pm | 24.8 | 24.1 | 11.9 | 44 | 7.3 | NE | 7 | 15 | 4 | 8 | 1021.3 | 1020.3 | 0.2 | |
| 01/02:40pm | 24.7 | 22.6 | 11.1 | 42 | 7.6 | NNE | 13 | 22 | 7 | 12 | 1021.4 | 1020.4 | 0.2 | |
| 01/02:30pm | 24.8 | 22.8 | 11.6 | 43 | 7.5 | NNE | 13 | 24 | 7 | 13 | 1021.4 | 1020.4 | 0.2 | |
| 01/02:20pm | 24.9 | 23.4 | 11.9 | 44 | 7.4 | NNE | 11 | 15 | 6 | 8 | 1021.7 | 1020.7 | 0.2 | |
| 01/02:10pm | 25.1 | 24.4 | 11.9 | 43 | 7.5 | NE | 7 | 19 | 4 | 10 | 1021.8 | 1020.8 | 0.2 | |
| 01/02:00pm | 25.3 | 24.0 | 11.1 | 41 | 8.0 | N | 9 | 19 | 5 | 10 | 1021.9 | 1020.9 | 0.2 | |
| 01/01:50pm | 25.3 | 23.9 | 10.9 | 40 | 8.1 | NNE | 9 | 15 | 5 | 8 | 1022.1 | 1021.1 | 0.2 | |
| 01/01:40pm | 25.0 | 23.2 | 10.8 | 41 | 7.9 | N | 11 | 17 | 6 | 9 | 1022.3 | 1021.3 | 0.2 | |
| 01/01:30pm | 24.7 | 23.4 | 10.1 | 39 | 8.1 | NNE | 7 | 17 | 4 | 9 | 1022.5 | 1021.5 | 0.2 | |
| 01/01:20pm | 24.8 | 23.4 | 11.0 | 42 | 7.7 | NE | 9 | 13 | 5 | 7 | 1022.8 | 1021.8 | 0.2 | |
| 01/01:10pm | 24.7 | 22.8 | 10.6 | 41 | 7.8 | NNE | 11 | 15 | 6 | 8 | 1023.1 | 1022.1 | 0.2 | |
| 01/01:00pm | 24.7 | 22.9 | 10.7 | 41 | 7.8 | N | 11 | 17 | 6 | 9 | 1023.2 | 1022.2 | 0.2 | |
| 01/12:50pm | 24.7 | 24.1 | 12.2 | 45 | 7.1 | NE | 7 | 15 | 4 | 8 | 1023.5 | 1022.5 | 0.2 | |
| 01/12:40pm | 24.5 | 23.8 | 12.1 | 46 | 7.1 | NNE | 7 | 11 | 4 | 6 | 1023.8 | 1022.8 | 0.2 | |
| 01/12:30pm | 24.2 | 22.9 | 11.1 | 43 | 7.3 | NNE | 9 | 15 | 5 | 8 | 1024.2 | 1023.2 | 0.2 | |
| 01/12:20pm | 24.4 | 23.8 | 11.8 | 45 | 7.1 | NE | 6 | 13 | 3 | 7 | 1024.5 | 1023.5 | 0.2 | |
| 01/12:10pm | 24.0 | 23.4 | 11.6 | 45 | 7.0 | NE | 6 | 11 | 3 | 6 | 1024.8 | 1023.8 | 0.2 | |
| 01/12:00pm | 23.8 | 22.9 | 10.6 | 43 | 7.3 | ENE | 6 | 13 | 3 | 7 | 1025.1 | 1024.1 | 0.2 | |
| 01/11:50am | 23.9 | 23.6 | 12.8 | 49 | 6.4 | NNW | 6 | 11 | 3 | 6 | 1025.4 | 1024.4 | 0.2 | |
| 01/11:40am | 23.7 | 24.0 | 13.4 | 52 | 6.0 | SW | 4 | 9 | 2 | 5 | 1025.7 | 1024.7 | 0.2 | |
| 01/11:30am | 23.0 | 22.9 | 12.0 | 50 | 6.2 | WNW | 4 | 9 | 2 | 5 | 1026.1 | 1025.1 | 0.2 | |
| 01/11:20am | 23.0 | 23.2 | 13.2 | 54 | 5.7 | N | 4 | 11 | 2 | 6 | 1026.4 | 1025.4 | 0.2 | |
| 01/11:10am | 22.6 | 22.8 | 13.2 | 55 | 5.4 | WSW | 4 | 7 | 2 | 4 | 1026.6 | 1025.6 | 0.0 | |
| 01/11:00am | 22.3 | 22.6 | 13.5 | 57 | 5.1 | S | 4 | 9 | 2 | 5 | 1026.9 | 1025.9 | 0.0 | |
| 01/10:50am | 22.0 | 22.3 | 13.3 | 57 | 5.0 | SSE | 4 | 6 | 2 | 3 | 1027.1 | 1026.1 | 0.0 | |
| 01/10:40am | 21.5 | 21.7 | 13.1 | 58 | 4.8 | NE | 4 | 7 | 2 | 4 | 1027.3 | 1026.3 | 0.0 | |
| 01/10:30am | 21.3 | 21.7 | 13.7 | 62 | 4.4 | ESE | 4 | 7 | 2 | 4 | 1027.6 | 1026.6 | 0.0 | |
| 01/10:20am | 20.6 | 20.9 | 13.3 | 63 | 4.2 | SE | 4 | 7 | 2 | 4 | 1027.8 | 1026.8 | 0.0 | |
| 01/10:10am | 20.3 | 20.6 | 13.3 | 64 | 4.0 | SSE | 4 | 6 | 2 | 3 | 1028.0 | 1027.0 | 0.0 | |
| 01/10:00am | 20.0 | 20.5 | 12.8 | 63 | 4.1 | ESE | 2 | 4 | 1 | 2 | 1028.2 | 1027.2 | 0.0 | |
| 01/09:50am | 19.5 | 20.2 | 13.5 | 68 | 3.4 | E | 2 | 4 | 1 | 2 | 1028.3 | 1027.3 | 0.0 | |
| 01/09:40am | 18.8 | 19.7 | 13.9 | 73 | 2.8 | NNW | 2 | 4 | 1 | 2 | 1028.5 | 1027.5 | 0.0 | |
| 01/09:30am | 17.8 | 18.3 | 14.0 | 78 | 2.2 | N | 4 | 6 | 2 | 3 | 1028.6 | 1027.6 | 0.0 | |
| 01/09:20am | 16.2 | 17.4 | 15.9 | 98 | 0.2 | N | 4 | 4 | 2 | 2 | 1028.7 | 1027.7 | 0.0 | |
| 01/09:10am | 15.0 | 16.2 | 14.9 | 99 | 0.1 | NNW | 2 | 4 | 1 | 2 | 1028.8 | 1027.8 | 0.0 | |
| 01/09:00am | 14.1 | 15.0 | 14.0 | 99 | 0.1 | NNE | 2 | 4 | 1 | 2 | 1028.9 | 1027.9 | 0.0 | |
| 01/08:50am | 13.8 | 14.2 | 13.7 | 99 | 0.1 | NNE | 4 | 7 | 2 | 4 | 1028.9 | 1027.9 | 0.0 | |
| 01/08:40am | 13.4 | 14.1 | 13.3 | 99 | 0.1 | N | 2 | 4 | 1 | 2 | 1029.0 | 1028.0 | 0.0 | |
| 01/08:30am | 12.8 | 13.3 | 12.7 | 99 | 0.1 | E | 2 | 4 | 1 | 2 | 1029.0 | 1028.0 | 0.0 | |
| 01/08:20am | 12.1 | 12.3 | 12.0 | 99 | 0.1 | N | 2 | 4 | 1 | 2 | 1029.0 | 1028.0 | 0.0 | |
| 01/08:10am | 11.6 | 11.7 | 11.5 | 99 | 0.1 | NNE | 2 | 4 | 1 | 2 | 1029.0 | 1028.0 | 0.0 | |
| 01/08:00am | 11.1 | 11.1 | 11.0 | 99 | 0.1 | NNE | 2 | 6 | 1 | 3 | 1029.0 | 1028.0 | 0.0 | |
| 01/07:50am | 10.8 | 10.7 | 10.7 | 99 | 0.1 | N | 2 | 2 | 1 | 1 | 1028.9 | 1027.9 | 0.0 | |
| 01/07:40am | 10.2 | 9.9 | 10.1 | 99 | 0.1 | ENE | 2 | 2 | 1 | 1 | 1028.9 | 1027.9 | 0.0 | |
| 01/07:30am | 9.7 | 9.2 | 9.5 | 99 | 0.1 | NE | 2 | 2 | 1 | 1 | 1028.8 | 1027.8 | 0.0 | |
| 01/07:20am | 8.9 | 8.6 | 8.7 | 99 | 0.1 | CALM | 0 | 2 | 0 | 1 | 1028.8 | 1027.8 | 0.0 | |
| 01/07:10am | 8.3 | 7.5 | 8.1 | 99 | 0.1 | N | 2 | 2 | 1 | 1 | 1028.7 | 1027.7 | 0.0 | |
| 01/07:00am | 7.8 | 6.9 | 7.6 | 99 | 0.1 | SE | 2 | 2 | 1 | 1 | 1028.6 | 1027.6 | 0.0 | |
| 01/06:50am | 7.7 | 6.7 | 7.4 | 98 | 0.1 | SSE | 2 | 2 | 1 | 1 | 1028.5 | 1027.5 | 0.0 | |
| 01/06:40am | 7.9 | 7.0 | 7.6 | 98 | 0.1 | NNE | 2 | 4 | 1 | 2 | 1028.5 | 1027.5 | 0.0 | |
| 01/06:30am | 7.6 | 6.2 | 7.3 | 98 | 0.1 | N | 4 | 6 | 2 | 3 | 1028.4 | 1027.4 | 0.0 | |
| 01/06:20am | 7.6 | 6.2 | 7.4 | 99 | 0.1 | N | 4 | 6 | 2 | 3 | 1028.3 | 1027.3 | 0.0 | |
| 01/06:10am | 7.2 | 5.7 | 6.9 | 98 | 0.1 | N | 4 | 6 | 2 | 3 | 1028.3 | 1027.3 | 0.0 | |
| 01/06:00am | 7.2 | 6.1 | 6.9 | 98 | 0.1 | NNW | 2 | 4 | 1 | 2 | 1028.1 | 1027.1 | 0.0 | |
| 01/05:50am | 7.2 | 6.1 | 6.9 | 98 | 0.1 | W | 2 | 4 | 1 | 2 | 1028.1 | 1027.1 | 0.0 | |
| 01/05:40am | 7.4 | 6.3 | 7.0 | 97 | 0.2 | NNW | 2 | 4 | 1 | 2 | 1028.0 | 1027.0 | 0.0 | |
| 01/05:30am | 7.7 | 6.3 | 7.4 | 98 | 0.1 | N | 4 | 4 | 2 | 2 | 1028.1 | 1027.1 | 0.0 | |
| 01/05:20am | 7.6 | 6.2 | 7.3 | 98 | 0.1 | N | 4 | 6 | 2 | 3 | 1028.1 | 1027.1 | 0.0 | |
| 01/05:10am | 7.5 | 6.1 | 7.2 | 98 | 0.1 | N | 4 | 4 | 2 | 2 | 1028.1 | 1027.1 | 0.0 | |
| 01/05:00am | 7.6 | 6.6 | 7.3 | 98 | 0.1 | N | 2 | 4 | 1 | 2 | 1028.0 | 1027.0 | 0.0 | |
| 01/04:50am | 7.8 | 6.8 | 7.4 | 97 | 0.2 | N | 2 | 4 | 1 | 2 | 1028.0 | 1027.0 | 0.0 | |
| 01/04:40am | 8.0 | 6.7 | 7.7 | 98 | 0.1 | NW | 4 | 4 | 2 | 2 | 1028.0 | 1027.0 | 0.0 | |
| 01/04:30am | 7.8 | 6.5 | 7.5 | 98 | 0.1 | N | 4 | 6 | 2 | 3 | 1028.1 | 1027.1 | 0.0 | |
| 01/04:20am | 7.7 | 6.3 | 7.4 | 98 | 0.1 | N | 4 | 6 | 2 | 3 | 1028.1 | 1027.1 | 0.0 | |
| 01/04:10am | 7.8 | 6.4 | 7.4 | 97 | 0.2 | N | 4 | 4 | 2 | 2 | 1028.1 | 1027.1 | 0.0 | |
| 01/04:00am | 8.0 | 7.1 | 7.7 | 98 | 0.1 | NW | 2 | 4 | 1 | 2 | 1028.0 | 1027.0 | 0.0 | |
| 01/03:50am | 7.9 | 7.0 | 7.6 | 98 | 0.1 | N | 2 | 4 | 1 | 2 | 1027.9 | 1026.9 | 0.0 | |
| 01/03:40am | 8.1 | 6.8 | 7.7 | 97 | 0.2 | N | 4 | 6 | 2 | 3 | 1027.9 | 1026.9 | 0.0 | |
| 01/03:30am | 8.1 | 6.8 | 7.8 | 98 | 0.1 | N | 4 | 6 | 2 | 3 | 1028.0 | 1027.0 | 0.0 | |
| 01/03:20am | 8.2 | 7.0 | 7.9 | 98 | 0.1 | N | 4 | 6 | 2 | 3 | 1028.1 | 1027.1 | 0.0 | |
| 01/03:10am | 8.1 | 7.2 | 7.8 | 98 | 0.1 | NW | 2 | 4 | 1 | 2 | 1028.2 | 1027.2 | 0.0 | |
| 01/03:00am | 8.1 | 6.8 | 7.8 | 98 | 0.1 | NNW | 4 | 4 | 2 | 2 | 1028.3 | 1027.3 | 0.0 | |
| 01/02:50am | 8.3 | 7.4 | 7.9 | 97 | 0.2 | NNW | 2 | 4 | 1 | 2 | 1028.5 | 1027.5 | 0.0 | |
| 01/02:40am | 8.4 | 7.6 | 8.0 | 97 | 0.2 | N | 2 | 4 | 1 | 2 | 1028.5 | 1027.5 | 0.0 | |
| 01/02:30am | 8.7 | 7.9 | 8.3 | 97 | 0.2 | NNW | 2 | 4 | 1 | 2 | 1028.6 | 1027.6 | 0.0 | |
| 01/02:20am | 8.7 | 7.6 | 8.3 | 97 | 0.2 | NNW | 4 | 6 | 2 | 3 | 1028.7 | 1027.7 | 0.0 | |
| 01/02:10am | 8.7 | 7.2 | 8.3 | 97 | 0.2 | NNE | 6 | 6 | 3 | 3 | 1028.8 | 1027.8 | 0.0 | |
| 01/02:00am | 8.8 | 7.7 | 8.4 | 97 | 0.2 | N | 4 | 4 | 2 | 2 | 1028.9 | 1027.9 | 0.0 | |
| 01/01:50am | 9.0 | 7.9 | 8.6 | 97 | 0.2 | N | 4 | 4 | 2 | 2 | 1029.1 | 1028.1 | 0.0 | |
| 01/01:40am | 9.0 | 8.3 | 8.6 | 97 | 0.2 | NNW | 2 | 4 | 1 | 2 | 1029.2 | 1028.2 | 0.0 | |
| 01/01:30am | 8.9 | 8.2 | 8.4 | 97 | 0.2 | WNW | 2 | 4 | 1 | 2 | 1029.2 | 1028.2 | 0.0 | |
| 01/01:20am | 9.1 | 8.1 | 8.7 | 97 | 0.2 | N | 4 | 6 | 2 | 3 | 1029.3 | 1028.3 | 0.0 | |
| 01/01:10am | 9.1 | 8.4 | 8.7 | 97 | 0.2 | N | 2 | 6 | 1 | 3 | 1029.4 | 1028.4 | 0.0 | |
| 01/01:00am | 9.3 | 8.7 | 8.9 | 97 | 0.2 | N | 2 | 4 | 1 | 2 | 1029.4 | 1028.4 | 0.0 | |
| 01/12:50am | 9.5 | 8.5 | 9.0 | 97 | 0.2 | N | 4 | 6 | 2 | 3 | 1029.6 | 1028.6 | 0.0 | |
| 01/12:40am | 9.5 | 8.6 | 9.1 | 97 | 0.2 | N | 4 | 6 | 2 | 3 | 1029.7 | 1028.7 | 0.0 | |
| 01/12:30am | 9.7 | 8.8 | 9.3 | 97 | 0.2 | N | 4 | 4 | 2 | 2 | 1029.7 | 1028.7 | 0.0 | |
| 01/12:20am | 9.8 | 9.3 | 9.3 | 97 | 0.2 | N | 2 | 4 | 1 | 2 | 1029.7 | 1028.7 | 0.0 | |
| 01/12:10am | 9.8 | 9.3 | 9.4 | 97 | 0.2 | NNW | 2 | 4 | 1 | 2 | 1029.7 | 1028.7 | 0.0 | |
| 01/12:00am | 10.0 | 9.6 | 9.6 | 97 | 0.2 | N | 2 | 4 | 1 | 2 | 1029.8 | 1028.8 | 0.0 | |
| Date/Time EST |
Temp °C |
App Temp °C |
Dew Point °C |
Rel Hum % |
Delta-T °C |
Wind | Press QNH hPa |
Press MSL hPa |
Rain since 9am mm |
|||||
|---|---|---|---|---|---|---|---|---|---|---|---|---|---|---|
| Dir | Spd km/h |
Gust km/h |
Spd kts |
Gust kts |
||||||||||
| 31/11:50pm | 10.0 | 8.8 | 9.5 | 97 | 0.2 | N | 6 | 6 | 3 | 3 | 1029.8 | 1028.8 | 0.0 | |
| 31/11:40pm | 10.0 | 9.2 | 9.5 | 97 | 0.2 | N | 4 | 6 | 2 | 3 | 1029.8 | 1028.8 | 0.0 | |
| 31/11:30pm | 10.1 | 9.3 | 9.6 | 97 | 0.2 | N | 4 | 4 | 2 | 2 | 1029.8 | 1028.8 | 0.0 | |
| 31/11:20pm | 10.2 | 9.0 | 9.6 | 96 | 0.3 | N | 6 | 6 | 3 | 3 | 1029.8 | 1028.8 | 0.0 | |
| 31/11:10pm | 10.4 | 9.6 | 9.8 | 96 | 0.3 | N | 4 | 6 | 2 | 3 | 1029.9 | 1028.9 | 0.0 | |
| 31/11:00pm | 10.5 | 9.8 | 10.0 | 97 | 0.3 | N | 4 | 4 | 2 | 2 | 1030.0 | 1029.0 | 0.0 | |
| 31/10:50pm | 10.6 | 9.9 | 10.0 | 96 | 0.3 | NNW | 4 | 4 | 2 | 2 | 1030.0 | 1029.0 | 0.0 | |
| 31/10:40pm | 10.9 | 10.7 | 10.3 | 96 | 0.3 | NNW | 2 | 4 | 1 | 2 | 1030.0 | 1029.0 | 0.0 | |
| 31/10:30pm | 10.9 | 10.3 | 10.4 | 97 | 0.3 | N | 4 | 4 | 2 | 2 | 1030.1 | 1029.1 | 0.0 | |
| 31/10:20pm | 10.9 | 10.3 | 10.3 | 96 | 0.3 | N | 4 | 4 | 2 | 2 | 1030.1 | 1029.1 | 0.0 | |
| 31/10:10pm | 10.8 | 10.5 | 10.2 | 96 | 0.3 | N | 2 | 4 | 1 | 2 | 1030.2 | 1029.2 | 0.0 | |
| 31/10:00pm | 11.0 | 10.8 | 10.3 | 95 | 0.4 | NNW | 2 | 2 | 1 | 1 | 1030.2 | 1029.2 | 0.0 | |
| 31/09:50pm | 11.2 | 11.0 | 10.5 | 95 | 0.4 | N | 2 | 4 | 1 | 2 | 1030.2 | 1029.2 | 0.0 | |
| 31/09:40pm | 11.3 | 11.1 | 10.6 | 95 | 0.4 | N | 2 | 2 | 1 | 1 | 1030.3 | 1029.3 | 0.0 | |
| 31/09:30pm | 11.6 | 11.5 | 10.9 | 95 | 0.4 | NNW | 2 | 2 | 1 | 1 | 1030.3 | 1029.3 | 0.0 | |
| 31/09:20pm | 11.9 | 11.9 | 11.1 | 95 | 0.4 | N | 2 | 2 | 1 | 1 | 1030.2 | 1029.2 | 0.0 | |
| 31/09:10pm | 11.9 | 11.9 | 11.2 | 95 | 0.4 | NNE | 2 | 2 | 1 | 1 | 1030.2 | 1029.2 | 0.0 | |
| 31/09:00pm | 12.1 | 12.1 | 11.3 | 95 | 0.4 | N | 2 | 4 | 1 | 2 | 1030.2 | 1029.2 | 0.0 | |
| 31/08:50pm | 12.1 | 12.1 | 11.3 | 95 | 0.4 | NNE | 2 | 4 | 1 | 2 | 1030.2 | 1029.2 | 0.0 | |
| 31/08:40pm | 12.3 | 12.4 | 11.4 | 94 | 0.5 | N | 2 | 2 | 1 | 1 | 1030.2 | 1029.2 | 0.0 | |
| 31/08:30pm | 12.5 | 12.6 | 11.6 | 94 | 0.5 | N | 2 | 2 | 1 | 1 | 1030.2 | 1029.2 | 0.0 | |
| 31/08:20pm | 12.7 | 12.9 | 11.7 | 94 | 0.5 | N | 2 | 4 | 1 | 2 | 1030.2 | 1029.2 | 0.0 | |
| 31/08:10pm | 12.8 | 12.6 | 11.9 | 94 | 0.5 | N | 4 | 4 | 2 | 2 | 1030.2 | 1029.2 | 0.0 | |
| 31/08:00pm | 12.9 | 13.1 | 11.9 | 94 | 0.5 | N | 2 | 4 | 1 | 2 | 1030.2 | 1029.2 | 0.0 | |
| 31/07:50pm | 12.9 | 13.1 | 11.8 | 93 | 0.6 | N | 2 | 4 | 1 | 2 | 1030.2 | 1029.2 | 0.0 | |
| 31/07:40pm | 13.0 | 13.2 | 11.9 | 93 | 0.6 | N | 2 | 4 | 1 | 2 | 1030.1 | 1029.1 | 0.0 | |
| 31/07:30pm | 13.1 | 13.3 | 11.9 | 92 | 0.6 | NNW | 2 | 4 | 1 | 2 | 1030.1 | 1029.1 | 0.0 | |
| 31/07:20pm | 13.5 | 13.8 | 12.3 | 92 | 0.6 | NNW | 2 | 4 | 1 | 2 | 1030.0 | 1029.0 | 0.0 | |
| 31/07:10pm | 13.5 | 13.4 | 12.2 | 92 | 0.7 | N | 4 | 6 | 2 | 3 | 1029.9 | 1028.9 | 0.0 | |
| 31/07:00pm | 13.7 | 14.0 | 12.1 | 90 | 0.9 | NNW | 2 | 4 | 1 | 2 | 1029.8 | 1028.8 | 0.0 | |
| 31/06:50pm | 14.1 | 14.4 | 12.3 | 89 | 1.0 | NNW | 2 | 6 | 1 | 3 | 1029.7 | 1028.7 | 0.0 | |
| 31/06:40pm | 14.4 | 14.5 | 12.6 | 89 | 1.0 | N | 4 | 6 | 2 | 3 | 1029.6 | 1028.6 | 0.0 | |
| 31/06:30pm | 14.5 | 14.9 | 12.5 | 88 | 1.1 | N | 2 | 4 | 1 | 2 | 1029.4 | 1028.4 | 0.0 | |
| 31/06:20pm | 14.9 | 15.3 | 12.6 | 86 | 1.3 | NNW | 2 | 4 | 1 | 2 | 1029.3 | 1028.3 | 0.0 | |
| 31/06:10pm | 15.5 | 16.0 | 12.8 | 84 | 1.5 | NW | 2 | 2 | 1 | 1 | 1029.2 | 1028.2 | 0.0 | |
| 31/06:00pm | 16.1 | 16.6 | 12.8 | 81 | 1.8 | E | 2 | 2 | 1 | 1 | 1029.0 | 1028.0 | 0.0 | |
| 31/05:50pm | 16.9 | 17.4 | 12.9 | 77 | 2.2 | SE | 2 | 2 | 1 | 1 | 1028.9 | 1027.9 | 0.0 | |
| 31/05:40pm | 17.6 | 18.2 | 13.1 | 75 | 2.5 | SSE | 2 | 2 | 1 | 1 | 1028.8 | 1027.8 | 0.0 | |
| 31/05:30pm | 18.6 | 19.2 | 13.2 | 71 | 3.1 | S | 2 | 2 | 1 | 1 | 1028.7 | 1027.7 | 0.0 | |
| 31/05:20pm | 19.3 | 20.0 | 13.4 | 68 | 3.4 | S | 2 | 2 | 1 | 1 | 1028.6 | 1027.6 | 0.0 | |
| 31/05:10pm | 19.9 | 20.7 | 13.6 | 67 | 3.6 | SSE | 2 | 4 | 1 | 2 | 1028.5 | 1027.5 | 0.0 | |
| 31/05:00pm | 20.2 | 20.9 | 13.4 | 65 | 3.9 | E | 2 | 6 | 1 | 3 | 1028.5 | 1027.5 | 0.0 | |
| 31/04:50pm | 20.6 | 21.2 | 13.1 | 62 | 4.3 | NNE | 2 | 6 | 1 | 3 | 1028.4 | 1027.4 | 0.0 | |
| 31/04:40pm | 20.8 | 21.4 | 13.0 | 61 | 4.4 | ENE | 2 | 6 | 1 | 3 | 1028.3 | 1027.3 | 0.0 | |
| 31/04:30pm | 21.1 | 21.8 | 13.4 | 61 | 4.4 | E | 2 | 4 | 1 | 2 | 1028.3 | 1027.3 | 0.0 | |
| 31/04:20pm | 20.9 | 21.3 | 13.7 | 63 | 4.1 | E | 4 | 9 | 2 | 5 | 1028.2 | 1027.2 | 0.0 | |
| 31/04:10pm | 21.0 | 21.4 | 13.6 | 62 | 4.3 | E | 4 | 9 | 2 | 5 | 1028.1 | 1027.1 | 0.0 | |
| 31/04:00pm | 21.2 | 21.7 | 14.0 | 63 | 4.2 | SSE | 4 | 9 | 2 | 5 | 1028.1 | 1027.1 | 0.0 | |
| 31/03:50pm | 21.1 | 21.0 | 13.4 | 61 | 4.4 | SE | 6 | 11 | 3 | 6 | 1028.1 | 1027.1 | 0.0 | |
| 31/03:40pm | 21.4 | 21.4 | 13.7 | 61 | 4.4 | SE | 6 | 9 | 3 | 5 | 1028.1 | 1027.1 | 0.0 | |
| 31/03:30pm | 21.2 | 21.0 | 13.1 | 60 | 4.6 | ESE | 6 | 11 | 3 | 6 | 1028.2 | 1027.2 | 0.0 | |
| 31/03:20pm | 21.4 | 21.5 | 12.6 | 57 | 5.0 | E | 4 | 7 | 2 | 4 | 1028.2 | 1027.2 | 0.0 | |
| 31/03:10pm | 21.9 | 22.7 | 13.6 | 59 | 4.8 | SE | 2 | 6 | 1 | 3 | 1028.2 | 1027.2 | 0.0 | |
| 31/03:00pm | 21.7 | 21.6 | 13.2 | 58 | 4.9 | ESE | 6 | 7 | 3 | 4 | 1028.2 | 1027.2 | 0.0 | |
| 31/02:50pm | 21.7 | 21.4 | 12.7 | 56 | 5.1 | SE | 6 | 9 | 3 | 5 | 1028.2 | 1027.2 | 0.0 | |
| 31/02:40pm | 21.6 | 21.7 | 12.6 | 56 | 5.1 | SE | 4 | 9 | 2 | 5 | 1028.3 | 1027.3 | 0.0 | |
| 31/02:30pm | 22.1 | 22.2 | 12.6 | 55 | 5.4 | SSE | 4 | 9 | 2 | 5 | 1028.3 | 1027.3 | 0.0 | |
| 31/02:20pm | 22.1 | 21.7 | 12.4 | 54 | 5.5 | SE | 6 | 11 | 3 | 6 | 1028.3 | 1027.3 | 0.0 | |
| 31/02:10pm | 22.3 | 22.2 | 13.3 | 56 | 5.2 | E | 6 | 9 | 3 | 5 | 1028.3 | 1027.3 | 0.0 | |
| 31/02:00pm | 22.0 | 21.9 | 13.2 | 57 | 5.1 | ESE | 6 | 11 | 3 | 6 | 1028.3 | 1027.3 | 0.0 | |
| 31/01:50pm | 22.3 | 22.1 | 13.1 | 56 | 5.3 | ESE | 6 | 9 | 3 | 5 | 1028.3 | 1027.3 | 0.0 | |
| 31/01:40pm | 21.9 | 21.4 | 12.6 | 55 | 5.3 | SSE | 7 | 13 | 4 | 7 | 1028.3 | 1027.3 | 0.0 | |
| 31/01:30pm | 22.3 | 22.1 | 13.5 | 57 | 5.1 | SSE | 7 | 11 | 4 | 6 | 1028.3 | 1027.3 | 0.0 | |
| 31/01:20pm | 22.0 | 22.0 | 13.7 | 59 | 4.8 | SE | 6 | 13 | 3 | 7 | 1028.3 | 1027.3 | 0.0 | |
| 31/01:10pm | 22.0 | 21.9 | 13.2 | 57 | 5.1 | SSE | 6 | 9 | 3 | 5 | 1028.4 | 1027.4 | 0.0 | |
| 31/01:00pm | 22.2 | 22.5 | 13.5 | 57 | 5.0 | SE | 4 | 9 | 2 | 5 | 1028.6 | 1027.6 | 0.0 | |
| 31/12:50pm | 22.0 | 21.8 | 13.7 | 59 | 4.8 | SE | 7 | 11 | 4 | 6 | 1028.7 | 1027.7 | 0.0 | |
| 31/12:40pm | 22.0 | 22.2 | 13.0 | 56 | 5.2 | SE | 4 | 6 | 2 | 3 | 1028.8 | 1027.8 | 0.0 | |
| 31/12:30pm | 22.1 | 22.0 | 12.2 | 53 | 5.6 | SE | 4 | 6 | 2 | 3 | 1028.9 | 1027.9 | 0.0 | |
| 31/12:20pm | 22.2 | 22.4 | 13.2 | 56 | 5.2 | NNW | 4 | 7 | 2 | 4 | 1028.9 | 1027.9 | 0.0 | |
| 31/12:10pm | 22.1 | 22.1 | 12.3 | 53 | 5.5 | ESE | 4 | 7 | 2 | 4 | 1029.0 | 1028.0 | 0.0 | |
| 31/12:00pm | 21.6 | 21.3 | 12.8 | 57 | 5.0 | S | 6 | 15 | 3 | 8 | 1029.1 | 1028.1 | 0.0 | |
| 31/11:50am | 22.2 | 22.0 | 13.1 | 56 | 5.2 | NNE | 6 | 7 | 3 | 4 | 1029.2 | 1028.2 | 0.0 | |
| 31/11:40am | 21.8 | 21.7 | 13.4 | 59 | 4.8 | NNE | 6 | 11 | 3 | 6 | 1029.3 | 1028.3 | 0.0 | |
| 31/11:30am | 21.5 | 21.0 | 12.0 | 54 | 5.3 | NNE | 6 | 11 | 3 | 6 | 1029.4 | 1028.4 | 0.0 | |
| 31/11:20am | 21.2 | 21.1 | 12.2 | 56 | 5.1 | S | 4 | 9 | 2 | 5 | 1029.5 | 1028.5 | 0.0 | |
| 31/11:10am | 20.6 | 20.1 | 11.9 | 57 | 4.8 | SW | 6 | 9 | 3 | 5 | 1029.7 | 1028.7 | 0.0 | |
| 31/11:00am | 21.0 | 20.6 | 12.3 | 57 | 4.9 | WNW | 6 | 7 | 3 | 4 | 1029.8 | 1028.8 | 0.0 | |
| 31/10:50am | 20.5 | 19.9 | 11.7 | 57 | 4.9 | NNW | 6 | 7 | 3 | 4 | 1030.0 | 1029.0 | 0.0 | |
| 31/10:40am | 20.9 | 20.9 | 12.5 | 58 | 4.7 | S | 4 | 6 | 2 | 3 | 1030.1 | 1029.1 | 0.0 | |
| 31/10:30am | 20.6 | 21.0 | 12.4 | 59 | 4.6 | N | 2 | 6 | 1 | 3 | 1030.2 | 1029.2 | 0.0 | |
| 31/10:20am | 20.4 | 20.4 | 12.4 | 60 | 4.5 | NNW | 4 | 7 | 2 | 4 | 1030.3 | 1029.3 | 0.0 | |
| 31/10:10am | 20.0 | 20.0 | 12.4 | 61 | 4.3 | N | 4 | 6 | 2 | 3 | 1030.5 | 1029.5 | 0.0 | |
| 31/10:00am | 19.6 | 19.6 | 12.5 | 63 | 4.0 | N | 4 | 7 | 2 | 4 | 1030.6 | 1029.6 | 0.0 | |
| 31/09:50am | 19.1 | 19.3 | 13.0 | 67 | 3.4 | N | 4 | 6 | 2 | 3 | 1030.7 | 1029.7 | 0.0 | |
| 31/09:40am | 18.9 | 19.2 | 13.5 | 71 | 3.1 | N | 4 | 7 | 2 | 4 | 1030.7 | 1029.7 | 0.0 | |
| 31/09:30am | 18.0 | 17.7 | 12.8 | 71 | 2.9 | N | 6 | 9 | 3 | 5 | 1030.8 | 1029.8 | 0.0 | |
| 31/09:20am | 17.7 | 17.6 | 13.2 | 75 | 2.5 | N | 6 | 9 | 3 | 5 | 1030.8 | 1029.8 | 0.0 | |
| 31/09:10am | 17.1 | 17.4 | 13.3 | 78 | 2.1 | N | 4 | 7 | 2 | 4 | 1030.9 | 1029.9 | 0.0 | |
| 31/09:00am | 16.5 | 16.2 | 12.7 | 78 | 2.1 | N | 6 | 7 | 3 | 4 | 1030.8 | 1029.8 | 0.0 | |
| 31/08:50am | 15.9 | 15.6 | 12.8 | 82 | 1.7 | N | 6 | 7 | 3 | 4 | 1030.7 | 1029.7 | 0.0 | |
| 31/08:40am | 15.4 | 15.5 | 12.6 | 83 | 1.5 | N | 4 | 6 | 2 | 3 | 1030.7 | 1029.7 | 0.0 | |
| 31/08:30am | 14.5 | 14.7 | 13.0 | 91 | 0.8 | NW | 4 | 6 | 2 | 3 | 1030.7 | 1029.7 | 0.0 | |
| 31/08:20am | 13.6 | 13.6 | 13.5 | 99 | 0.1 | NNW | 6 | 6 | 3 | 3 | 1030.7 | 1029.7 | 0.0 | |
| 31/08:10am | 12.9 | 13.0 | 12.8 | 99 | 0.1 | NNW | 4 | 7 | 2 | 4 | 1030.6 | 1029.6 | 0.0 | |
| 31/08:00am | 12.3 | 12.2 | 12.1 | 99 | 0.1 | NW | 4 | 6 | 2 | 3 | 1030.5 | 1029.5 | 0.0 | |
| 31/07:50am | 11.9 | 11.7 | 11.7 | 99 | 0.1 | NW | 4 | 4 | 2 | 2 | 1030.5 | 1029.5 | 0.0 | |
| 31/07:40am | 11.2 | 10.8 | 11.1 | 99 | 0.1 | NNW | 4 | 6 | 2 | 3 | 1030.5 | 1029.5 | 0.0 | |
| 31/07:30am | 10.4 | 10.2 | 10.3 | 99 | 0.1 | N | 2 | 6 | 1 | 3 | 1030.4 | 1029.4 | 0.0 | |
| 31/07:20am | 9.7 | 9.2 | 9.5 | 99 | 0.1 | ESE | 2 | 2 | 1 | 1 | 1030.4 | 1029.4 | 0.0 | |
| 31/07:10am | 9.1 | 8.5 | 8.9 | 99 | 0.1 | NNE | 2 | 2 | 1 | 1 | 1030.3 | 1029.3 | 0.0 | |
| 31/07:00am | 8.8 | 8.1 | 8.5 | 98 | 0.1 | NE | 2 | 2 | 1 | 1 | 1030.3 | 1029.3 | 0.0 | |
| 31/06:50am | 8.4 | 7.6 | 8.1 | 98 | 0.1 | NNE | 2 | 2 | 1 | 1 | 1030.2 | 1029.2 | 0.0 | |
| 31/06:40am | 8.3 | 7.5 | 8.0 | 98 | 0.1 | NNE | 2 | 4 | 1 | 2 | 1030.0 | 1029.0 | 0.0 | |
| 31/06:30am | 8.2 | 6.9 | 7.8 | 97 | 0.2 | N | 4 | 6 | 2 | 3 | 1029.9 | 1028.9 | 0.0 | |
| 31/06:20am | 8.3 | 7.1 | 8.0 | 98 | 0.1 | N | 4 | 6 | 2 | 3 | 1029.8 | 1028.8 | 0.0 | |
| 31/06:10am | 8.3 | 7.1 | 8.0 | 98 | 0.1 | N | 4 | 6 | 2 | 3 | 1029.7 | 1028.7 | 0.0 | |
| 31/06:00am | 8.1 | 6.8 | 7.8 | 98 | 0.1 | N | 4 | 6 | 2 | 3 | 1029.5 | 1028.5 | 0.0 | |
| 31/05:50am | 7.9 | 7.0 | 7.6 | 98 | 0.1 | NNW | 2 | 4 | 1 | 2 | 1029.5 | 1028.5 | 0.0 | |
| 31/05:40am | 8.1 | 6.8 | 7.8 | 98 | 0.1 | N | 4 | 4 | 2 | 2 | 1029.4 | 1028.4 | 0.0 | |
| 31/05:30am | 8.0 | 6.7 | 7.6 | 97 | 0.2 | N | 4 | 4 | 2 | 2 | 1029.3 | 1028.3 | 0.0 | |
| 31/05:20am | 8.1 | 6.8 | 7.7 | 97 | 0.2 | N | 4 | 4 | 2 | 2 | 1029.3 | 1028.3 | 0.0 | |
| 31/05:10am | 8.2 | 7.0 | 7.9 | 98 | 0.1 | N | 4 | 4 | 2 | 2 | 1029.2 | 1028.2 | 0.0 | |
| 31/05:00am | 8.5 | 7.3 | 8.2 | 98 | 0.1 | N | 4 | 4 | 2 | 2 | 1029.2 | 1028.2 | 0.0 | |
| 31/04:50am | 8.7 | 7.6 | 8.4 | 98 | 0.1 | N | 4 | 4 | 2 | 2 | 1029.1 | 1028.1 | 0.0 | |
| 31/04:40am | 8.6 | 7.5 | 8.3 | 98 | 0.1 | N | 4 | 6 | 2 | 3 | 1029.0 | 1028.0 | 0.0 | |
| 31/04:30am | 8.5 | 7.3 | 8.2 | 98 | 0.1 | N | 4 | 6 | 2 | 3 | 1028.9 | 1027.9 | 0.0 | |
| 31/04:20am | 8.5 | 7.7 | 8.2 | 98 | 0.1 | N | 2 | 2 | 1 | 1 | 1029.0 | 1028.0 | 0.0 | |
| 31/04:10am | 8.6 | 7.8 | 8.3 | 98 | 0.1 | N | 2 | 4 | 1 | 2 | 1029.0 | 1028.0 | 0.0 | |
| 31/04:00am | 8.5 | 7.3 | 8.2 | 98 | 0.1 | NNW | 4 | 4 | 2 | 2 | 1029.0 | 1028.0 | 0.0 | |
| 31/03:50am | 8.5 | 7.3 | 8.1 | 97 | 0.2 | N | 4 | 6 | 2 | 3 | 1029.0 | 1028.0 | 0.0 | |
| 31/03:40am | 8.4 | 7.2 | 8.0 | 97 | 0.2 | N | 4 | 4 | 2 | 2 | 1029.0 | 1028.0 | 0.0 | |
| 31/03:30am | 8.5 | 7.3 | 8.1 | 97 | 0.2 | N | 4 | 4 | 2 | 2 | 1029.0 | 1028.0 | 0.0 | |
| 31/03:20am | 8.7 | 7.6 | 8.4 | 98 | 0.1 | N | 4 | 4 | 2 | 2 | 1029.0 | 1028.0 | 0.0 | |
| 31/03:10am | 8.7 | 7.9 | 8.3 | 97 | 0.2 | N | 2 | 4 | 1 | 2 | 1029.0 | 1028.0 | 0.0 | |
| 31/03:00am | 8.6 | 7.4 | 8.1 | 97 | 0.2 | N | 4 | 4 | 2 | 2 | 1029.1 | 1028.1 | 0.0 | |
| 31/02:50am | 8.9 | 7.8 | 8.5 | 97 | 0.2 | N | 4 | 4 | 2 | 2 | 1029.1 | 1028.1 | 0.0 | |
| 31/02:40am | 9.0 | 7.9 | 8.6 | 97 | 0.2 | N | 4 | 6 | 2 | 3 | 1029.1 | 1028.1 | 0.0 | |
| 31/02:30am | 9.0 | 7.5 | 8.6 | 97 | 0.2 | N | 6 | 6 | 3 | 3 | 1029.1 | 1028.1 | 0.0 | |
| 31/02:20am | 9.1 | 8.1 | 8.7 | 97 | 0.2 | N | 4 | 6 | 2 | 3 | 1029.2 | 1028.2 | 0.0 | |
| 31/02:10am | 9.1 | 8.1 | 8.7 | 97 | 0.2 | N | 4 | 4 | 2 | 2 | 1029.3 | 1028.3 | 0.0 | |
| 31/02:00am | 9.3 | 8.3 | 8.8 | 97 | 0.2 | NNE | 4 | 4 | 2 | 2 | 1029.3 | 1028.3 | 0.0 | |
| 31/01:50am | 9.2 | 8.2 | 8.7 | 97 | 0.2 | NNE | 4 | 4 | 2 | 2 | 1029.3 | 1028.3 | 0.0 | |
| 31/01:40am | 9.3 | 8.3 | 8.9 | 97 | 0.2 | N | 4 | 4 | 2 | 2 | 1029.3 | 1028.3 | 0.0 | |
| 31/01:30am | 9.3 | 8.3 | 8.8 | 97 | 0.2 | N | 4 | 4 | 2 | 2 | 1029.4 | 1028.4 | 0.0 | |
| 31/01:20am | 9.4 | 8.4 | 8.9 | 97 | 0.2 | N | 4 | 4 | 2 | 2 | 1029.5 | 1028.5 | 0.0 | |
| 31/01:10am | 9.4 | 8.4 | 9.0 | 97 | 0.2 | N | 4 | 4 | 2 | 2 | 1029.6 | 1028.6 | 0.0 | |
| 31/01:00am | 9.5 | 8.5 | 9.0 | 97 | 0.2 | N | 4 | 4 | 2 | 2 | 1029.7 | 1028.7 | 0.0 | |
| 31/12:50am | 9.5 | 8.5 | 9.0 | 97 | 0.2 | N | 4 | 4 | 2 | 2 | 1029.8 | 1028.8 | 0.0 | |
| 31/12:40am | 9.8 | 8.9 | 9.3 | 97 | 0.2 | N | 4 | 4 | 2 | 2 | 1029.8 | 1028.8 | 0.0 | |
| 31/12:30am | 10.0 | 9.2 | 9.5 | 97 | 0.2 | N | 4 | 4 | 2 | 2 | 1029.9 | 1028.9 | 0.0 | |
| 31/12:20am | 10.0 | 9.2 | 9.5 | 97 | 0.2 | N | 4 | 4 | 2 | 2 | 1030.0 | 1029.0 | 0.0 | |
| 31/12:10am | 10.2 | 9.4 | 9.7 | 97 | 0.3 | N | 4 | 4 | 2 | 2 | 1030.0 | 1029.0 | 0.0 | |
| 31/12:00am | 10.1 | 9.3 | 9.6 | 97 | 0.2 | N | 4 | 6 | 2 | 3 | 1030.0 | 1029.0 | 0.0 | |
| Date/Time EST |
Temp °C |
App Temp °C |
Dew Point °C |
Rel Hum % |
Delta-T °C |
Wind | Press QNH hPa |
Press MSL hPa |
Rain since 9am mm |
||||
|---|---|---|---|---|---|---|---|---|---|---|---|---|---|
| Dir | Spd km/h |
Gust km/h |
Spd kts |
Gust kts |
|||||||||
| 30/11:50pm | 10.1 | 8.9 | 9.6 | 97 | 0.2 | N | 6 | 6 | 3 | 3 | 1029.9 | 1028.9 | 0.0 |
| 30/11:40pm | 10.5 | 9.8 | 10.0 | 97 | 0.3 | N | 4 | 6 | 2 | 3 | 1029.9 | 1028.9 | 0.0 |
| 30/11:30pm | 10.4 | 9.7 | 9.9 | 97 | 0.3 | N | 4 | 4 | 2 | 2 | 1029.9 | 1028.9 | 0.0 |
| 30/11:20pm | 10.3 | 9.5 | 9.8 | 97 | 0.3 | N | 4 | 6 | 2 | 3 | 1030.0 | 1029.0 | 0.0 |
| 30/11:10pm | 10.4 | 9.6 | 9.8 | 96 | 0.3 | N | 4 | 4 | 2 | 2 | 1030.0 | 1029.0 | 0.0 |
| 30/11:00pm | 10.4 | 10.0 | 9.9 | 97 | 0.3 | NW | 2 | 2 | 1 | 1 | 1030.1 | 1029.1 | 0.0 |
| 30/10:50pm | 10.4 | 10.0 | 9.8 | 96 | 0.3 | NNW | 2 | 4 | 1 | 2 | 1030.1 | 1029.1 | 0.0 |
| 30/10:40pm | 10.7 | 10.0 | 10.1 | 96 | 0.3 | N | 4 | 6 | 2 | 3 | 1030.1 | 1029.1 | 0.0 |
| 30/10:30pm | 10.6 | 9.9 | 10.0 | 96 | 0.3 | N | 4 | 6 | 2 | 3 | 1030.1 | 1029.1 | 0.0 |
| 30/10:20pm | 10.7 | 10.0 | 10.1 | 96 | 0.3 | N | 4 | 4 | 2 | 2 | 1030.1 | 1029.1 | 0.0 |
| 30/10:10pm | 10.6 | 10.2 | 9.9 | 95 | 0.4 | N | 2 | 4 | 1 | 2 | 1030.1 | 1029.1 | 0.0 |
| 30/10:00pm | 10.9 | 10.7 | 10.3 | 96 | 0.3 | NNW | 2 | 2 | 1 | 1 | 1030.1 | 1029.1 | 0.0 |
| 30/09:50pm | 11.0 | 10.4 | 10.4 | 96 | 0.3 | N | 4 | 4 | 2 | 2 | 1030.0 | 1029.0 | 0.0 |
| 30/09:40pm | 11.1 | 10.1 | 10.4 | 95 | 0.4 | N | 6 | 6 | 3 | 3 | 1030.0 | 1029.0 | 0.0 |
| 30/09:30pm | 11.1 | 10.5 | 10.4 | 95 | 0.4 | NNW | 4 | 4 | 2 | 2 | 1030.0 | 1029.0 | 0.0 |
| 30/09:20pm | 11.5 | 11.0 | 10.8 | 95 | 0.4 | NW | 4 | 4 | 2 | 2 | 1030.0 | 1029.0 | 0.0 |
| 30/09:10pm | 11.4 | 11.2 | 10.6 | 95 | 0.4 | N | 2 | 2 | 1 | 1 | 1030.0 | 1029.0 | 0.0 |
| 30/09:00pm | 11.4 | 11.2 | 10.6 | 95 | 0.4 | N | 2 | 4 | 1 | 2 | 1029.9 | 1028.9 | 0.0 |
| 30/08:50pm | 11.6 | 11.5 | 10.8 | 95 | 0.4 | N | 2 | 4 | 1 | 2 | 1029.7 | 1028.7 | 0.0 |
| 30/08:40pm | 11.6 | 11.5 | 10.7 | 94 | 0.5 | N | 2 | 2 | 1 | 1 | 1029.6 | 1028.6 | 0.0 |
| 30/08:30pm | 11.9 | 11.9 | 11.0 | 94 | 0.5 | NNW | 2 | 2 | 1 | 1 | 1029.6 | 1028.6 | 0.0 |
| 30/08:20pm | 12.0 | 11.9 | 10.9 | 93 | 0.6 | N | 2 | 2 | 1 | 1 | 1029.6 | 1028.6 | 0.0 |
| 30/08:10pm | 12.1 | 11.7 | 11.0 | 93 | 0.6 | N | 4 | 4 | 2 | 2 | 1029.6 | 1028.6 | 0.0 |
| 30/08:00pm | 12.3 | 12.3 | 11.1 | 92 | 0.6 | NNW | 2 | 4 | 1 | 2 | 1029.5 | 1028.5 | 0.0 |
| 30/07:50pm | 12.5 | 12.2 | 11.3 | 92 | 0.6 | NNW | 4 | 4 | 2 | 2 | 1029.4 | 1028.4 | 0.0 |
| 30/07:40pm | 12.6 | 12.7 | 11.4 | 92 | 0.6 | NW | 2 | 4 | 1 | 2 | 1029.3 | 1028.3 | 0.0 |
| 30/07:30pm | 12.7 | 12.8 | 11.4 | 92 | 0.7 | NW | 2 | 4 | 1 | 2 | 1029.3 | 1028.3 | 0.0 |
| 30/07:20pm | 12.8 | 12.9 | 11.5 | 92 | 0.7 | N | 2 | 4 | 1 | 2 | 1029.3 | 1028.3 | 0.0 |
| 30/07:10pm | 13.1 | 13.2 | 11.6 | 91 | 0.8 | NNW | 2 | 4 | 1 | 2 | 1029.2 | 1028.2 | 0.0 |
| 30/07:00pm | 13.2 | 13.3 | 11.6 | 90 | 0.9 | NNE | 2 | 4 | 1 | 2 | 1029.2 | 1028.2 | 0.0 |
| 30/06:50pm | 13.6 | 13.4 | 11.7 | 88 | 1.0 | N | 4 | 4 | 2 | 2 | 1029.1 | 1028.1 | 0.0 |
| 30/06:40pm | 13.9 | 13.7 | 11.9 | 88 | 1.1 | N | 4 | 4 | 2 | 2 | 1029.0 | 1028.0 | 0.0 |
| 30/06:30pm | 14.0 | 13.8 | 11.8 | 86 | 1.2 | N | 4 | 4 | 2 | 2 | 1028.8 | 1027.8 | 0.0 |
| 30/06:20pm | 14.5 | 14.4 | 12.0 | 85 | 1.4 | N | 4 | 6 | 2 | 3 | 1028.7 | 1027.7 | 0.0 |
| 30/06:10pm | 14.8 | 14.7 | 12.1 | 84 | 1.5 | NW | 4 | 4 | 2 | 2 | 1028.6 | 1027.6 | 0.0 |
| 30/06:00pm | 15.3 | 15.6 | 12.1 | 81 | 1.7 | NNW | 2 | 4 | 1 | 2 | 1028.5 | 1027.5 | 0.0 |
| 30/05:50pm | 15.8 | 16.1 | 12.1 | 78 | 2.0 | NW | 2 | 4 | 1 | 2 | 1028.4 | 1027.4 | 0.0 |
| 30/05:40pm | 16.8 | 17.5 | 12.1 | 74 | 2.6 | CALM | 0 | 2 | 0 | 1 | 1028.2 | 1027.2 | 0.0 |
| 30/05:30pm | 17.4 | 17.7 | 12.3 | 72 | 2.8 | S | 2 | 2 | 1 | 1 | 1028.1 | 1027.1 | 0.0 |
| 30/05:20pm | 18.6 | 19.0 | 12.5 | 67 | 3.4 | SSE | 2 | 4 | 1 | 2 | 1028.0 | 1027.0 | 0.0 |
| 30/05:10pm | 19.3 | 19.7 | 12.6 | 65 | 3.8 | SSE | 2 | 6 | 1 | 3 | 1027.9 | 1026.9 | 0.0 |
| 30/05:00pm | 19.8 | 20.2 | 12.4 | 62 | 4.1 | ENE | 2 | 4 | 1 | 2 | 1027.9 | 1026.9 | 0.0 |
| 30/04:50pm | 20.1 | 20.5 | 12.6 | 62 | 4.2 | SE | 2 | 6 | 1 | 3 | 1027.9 | 1026.9 | 0.0 |
| 30/04:40pm | 20.0 | 20.0 | 12.5 | 62 | 4.2 | SE | 4 | 9 | 2 | 5 | 1027.9 | 1026.9 | 0.0 |
| 30/04:30pm | 20.0 | 20.2 | 12.9 | 63 | 4.0 | SE | 4 | 7 | 2 | 4 | 1027.8 | 1026.8 | 0.0 |
| 30/04:20pm | 20.2 | 20.4 | 13.0 | 63 | 4.1 | SSE | 4 | 7 | 2 | 4 | 1027.7 | 1026.7 | 0.0 |
| 30/04:10pm | 20.5 | 20.7 | 12.9 | 61 | 4.3 | SE | 4 | 7 | 2 | 4 | 1027.6 | 1026.6 | 0.0 |
| 30/04:00pm | 20.5 | 20.2 | 12.8 | 61 | 4.4 | ESE | 6 | 13 | 3 | 7 | 1027.5 | 1026.5 | 0.0 |
| 30/03:50pm | 20.6 | 20.2 | 13.1 | 62 | 4.3 | ESE | 7 | 9 | 4 | 5 | 1027.6 | 1026.6 | 0.0 |
| 30/03:40pm | 21.0 | 20.6 | 13.1 | 60 | 4.5 | SE | 7 | 15 | 4 | 8 | 1027.5 | 1026.5 | 0.0 |
| 30/03:30pm | 21.0 | 21.2 | 13.1 | 60 | 4.5 | SSE | 4 | 11 | 2 | 6 | 1027.5 | 1026.5 | 0.0 |
| 30/03:20pm | 21.1 | 20.9 | 13.1 | 60 | 4.6 | SE | 6 | 13 | 3 | 7 | 1027.5 | 1026.5 | 0.0 |
| 30/03:10pm | 21.1 | 21.1 | 13.5 | 62 | 4.4 | ESE | 6 | 13 | 3 | 7 | 1027.4 | 1026.4 | 0.0 |
| 30/03:00pm | 21.5 | 21.8 | 13.5 | 60 | 4.6 | S | 4 | 7 | 2 | 4 | 1027.4 | 1026.4 | 0.0 |
| 30/02:50pm | 21.4 | 21.6 | 13.1 | 59 | 4.7 | WNW | 4 | 11 | 2 | 6 | 1027.4 | 1026.4 | 0.0 |
| 30/02:40pm | 21.9 | 22.1 | 13.0 | 57 | 5.1 | ENE | 4 | 7 | 2 | 4 | 1027.4 | 1026.4 | 0.0 |
| 30/02:30pm | 22.2 | 21.9 | 11.4 | 50 | 6.0 | SSE | 4 | 6 | 2 | 3 | 1027.3 | 1026.3 | 0.0 |
| 30/02:20pm | 22.0 | 21.1 | 11.2 | 50 | 6.0 | S | 7 | 11 | 4 | 6 | 1027.3 | 1026.3 | 0.0 |
| 30/02:10pm | 21.7 | 21.0 | 9.9 | 47 | 6.4 | ESE | 4 | 11 | 2 | 6 | 1027.4 | 1026.4 | 0.0 |
| 30/02:00pm | 21.9 | 21.2 | 10.2 | 47 | 6.4 | NNW | 4 | 9 | 2 | 5 | 1027.4 | 1026.4 | 0.0 |
| 30/01:50pm | 21.7 | 21.4 | 11.3 | 51 | 5.8 | E | 4 | 7 | 2 | 4 | 1027.6 | 1026.6 | 0.0 |
| 30/01:40pm | 21.4 | 20.5 | 10.6 | 50 | 5.9 | S | 6 | 11 | 3 | 6 | 1027.7 | 1026.7 | 0.0 |
| 30/01:30pm | 20.6 | 19.1 | 10.4 | 52 | 5.5 | S | 9 | 15 | 5 | 8 | 1027.9 | 1026.9 | 0.0 |
| 30/01:20pm | 21.0 | 20.3 | 10.1 | 49 | 5.9 | S | 4 | 7 | 2 | 4 | 1028.0 | 1027.0 | 0.0 |
| 30/01:10pm | 20.3 | 19.1 | 10.3 | 52 | 5.4 | SSE | 7 | 13 | 4 | 7 | 1028.1 | 1027.1 | 0.0 |
| 30/01:00pm | 20.9 | 20.0 | 10.5 | 51 | 5.7 | SSE | 6 | 11 | 3 | 6 | 1028.2 | 1027.2 | 0.0 |
| 30/12:50pm | 21.0 | 20.4 | 10.4 | 50 | 5.8 | ESE | 4 | 11 | 2 | 6 | 1028.4 | 1027.4 | 0.0 |
| 30/12:40pm | 20.2 | 19.8 | 11.1 | 56 | 5.0 | SE | 4 | 7 | 2 | 4 | 1028.5 | 1027.5 | 0.0 |
| 30/12:30pm | 20.8 | 20.3 | 10.7 | 52 | 5.5 | NE | 4 | 7 | 2 | 4 | 1028.6 | 1027.6 | 0.0 |
| 30/12:20pm | 20.6 | 19.7 | 10.8 | 53 | 5.4 | ESE | 6 | 9 | 3 | 5 | 1028.7 | 1027.7 | 0.0 |
| 30/12:10pm | 20.2 | 19.3 | 10.8 | 54 | 5.1 | SE | 6 | 9 | 3 | 5 | 1028.8 | 1027.8 | 0.0 |
| 30/12:00pm | 21.2 | 20.7 | 10.7 | 51 | 5.7 | NNW | 4 | 7 | 2 | 4 | 1028.8 | 1027.8 | 0.0 |
| 30/11:50am | 21.1 | 20.3 | 11.1 | 52 | 5.5 | SW | 6 | 9 | 3 | 5 | 1029.0 | 1028.0 | 0.0 |
| 30/11:40am | 20.7 | 18.9 | 9.5 | 48 | 6.0 | SSW | 9 | 15 | 5 | 8 | 1029.2 | 1028.2 | 0.0 |
| 30/11:30am | 20.9 | 19.8 | 10.7 | 52 | 5.6 | SW | 7 | 11 | 4 | 6 | 1029.3 | 1028.3 | 0.0 |
| 30/11:20am | 20.0 | 17.6 | 10.1 | 53 | 5.3 | S | 13 | 22 | 7 | 12 | 1029.5 | 1028.5 | 0.0 |
| 30/11:10am | 20.4 | 19.0 | 10.9 | 54 | 5.2 | S | 9 | 22 | 5 | 12 | 1029.6 | 1028.6 | 0.0 |
| 30/11:00am | 20.4 | 19.4 | 10.4 | 52 | 5.4 | SSE | 6 | 9 | 3 | 5 | 1029.7 | 1028.7 | 0.0 |
| 30/10:50am | 20.2 | 19.3 | 10.7 | 54 | 5.2 | SSE | 6 | 11 | 3 | 6 | 1029.8 | 1028.8 | 0.0 |
| 30/10:40am | 19.8 | 18.0 | 9.3 | 50 | 5.6 | S | 9 | 17 | 5 | 9 | 1029.8 | 1028.8 | 0.0 |
| 30/10:30am | 20.0 | 18.8 | 10.4 | 54 | 5.2 | S | 7 | 15 | 4 | 8 | 1029.9 | 1028.9 | 0.0 |
| 30/10:20am | 19.7 | 18.2 | 10.4 | 55 | 5.0 | SW | 9 | 17 | 5 | 9 | 1029.9 | 1028.9 | 0.0 |
| 30/10:10am | 19.7 | 18.8 | 11.5 | 59 | 4.5 | S | 7 | 13 | 4 | 7 | 1029.9 | 1028.9 | 0.0 |
| 30/10:00am | 19.5 | 18.6 | 10.8 | 57 | 4.7 | S | 6 | 13 | 3 | 7 | 1030.0 | 1029.0 | 0.0 |
| 30/09:50am | 19.1 | 18.6 | 10.9 | 59 | 4.5 | SSE | 4 | 9 | 2 | 5 | 1030.1 | 1029.1 | 0.0 |
| 30/09:40am | 19.0 | 18.7 | 11.6 | 62 | 4.1 | SSE | 4 | 6 | 2 | 3 | 1030.1 | 1029.1 | 0.0 |
| 30/09:30am | 18.8 | 18.4 | 11.0 | 60 | 4.2 | S | 4 | 9 | 2 | 5 | 1030.1 | 1029.1 | 0.0 |
| 30/09:20am | 18.7 | 18.5 | 11.7 | 63 | 3.8 | WSW | 4 | 7 | 2 | 4 | 1030.1 | 1029.1 | 0.0 |
| 30/09:10am | 18.0 | 17.4 | 11.6 | 66 | 3.5 | WNW | 6 | 7 | 3 | 4 | 1030.1 | 1029.1 | 0.0 |
| 30/09:00am | 17.4 | 16.9 | 12.1 | 71 | 2.9 | NW | 6 | 7 | 3 | 4 | 1030.2 | 1029.2 | 0.0 |
| 30/08:50am | 17.2 | 16.9 | 12.8 | 75 | 2.4 | W | 6 | 7 | 3 | 4 | 1030.2 | 1029.2 | 0.0 |
| 30/08:40am | 16.4 | 15.9 | 12.6 | 78 | 2.1 | W | 7 | 9 | 4 | 5 | 1030.1 | 1029.1 | 0.0 |
| 30/08:30am | 16.0 | 15.7 | 12.7 | 81 | 1.8 | WNW | 6 | 9 | 3 | 5 | 1030.1 | 1029.1 | 0.0 |
| 30/08:20am | 15.4 | 14.9 | 12.5 | 83 | 1.6 | NW | 7 | 13 | 4 | 7 | 1030.1 | 1029.1 | 0.0 |
| 30/08:10am | 14.7 | 14.4 | 12.8 | 88 | 1.0 | WNW | 6 | 9 | 3 | 5 | 1030.1 | 1029.1 | 0.0 |
| 30/08:00am | 13.8 | 13.6 | 13.5 | 98 | 0.2 | NW | 7 | 9 | 4 | 5 | 1029.9 | 1028.9 | 0.0 |
| 30/07:50am | 12.8 | 12.9 | 12.6 | 99 | 0.1 | NW | 4 | 6 | 2 | 3 | 1029.9 | 1028.9 | 0.0 |
| 30/07:40am | 12.1 | 11.9 | 11.8 | 98 | 0.2 | N | 4 | 6 | 2 | 3 | 1029.8 | 1028.8 | 0.0 |
| 30/07:30am | 11.2 | 10.7 | 10.9 | 98 | 0.2 | N | 4 | 6 | 2 | 3 | 1029.8 | 1028.8 | 0.0 |
| 30/07:20am | 10.8 | 10.2 | 10.4 | 97 | 0.2 | NNW | 4 | 4 | 2 | 2 | 1029.8 | 1028.8 | 0.0 |
| 30/07:10am | 10.4 | 9.7 | 10.0 | 97 | 0.2 | N | 4 | 4 | 2 | 2 | 1029.7 | 1028.7 | 0.0 |
| 30/07:00am | 9.9 | 9.1 | 9.5 | 97 | 0.2 | N | 4 | 4 | 2 | 2 | 1029.6 | 1028.6 | 0.0 |
| 30/06:50am | 9.7 | 8.8 | 9.4 | 98 | 0.1 | N | 4 | 4 | 2 | 2 | 1029.5 | 1028.5 | 0.0 |
| 30/06:40am | 9.3 | 7.9 | 8.9 | 97 | 0.2 | N | 6 | 6 | 3 | 3 | 1029.4 | 1028.4 | 0.0 |
| 30/06:30am | 9.1 | 8.0 | 8.6 | 97 | 0.2 | N | 4 | 6 | 2 | 3 | 1029.3 | 1028.3 | 0.0 |
| 30/06:20am | 9.5 | 8.9 | 9.0 | 97 | 0.2 | NW | 2 | 4 | 1 | 2 | 1029.2 | 1028.2 | 0.0 |
| 30/06:10am | 9.4 | 8.8 | 8.9 | 97 | 0.2 | W | 2 | 2 | 1 | 1 | 1029.1 | 1028.1 | 0.0 |
| 30/06:00am | 9.7 | 9.2 | 9.3 | 97 | 0.2 | NNW | 2 | 4 | 1 | 2 | 1029.0 | 1028.0 | 0.0 |
Other formats
Comma delimited format used in spreadsheet applications
http://www.bom.gov.au/fwo/IDN60801/IDN60801.99390.axf
JavaScript Object Notation format (JSON) in row-major order
http://www.bom.gov.au/fwo/IDN60801/IDN60801.99390.json
Data quality
Most of these data are generated automatically and are frequently updated. Quality checks on data are not normally performed. It is possible for incorrect values to appear. Refer to information at About Latest Weather Observations and please check the disclaimer before using these data.
